sensor_id;sensor_type;location;lat;lon;timestamp;P1;durP1;ratioP1;P2;durP2;ratioP2
18162;SDS011;9206;50.994;4.538;2023-03-01T00:01:59;7.87;;;7.17;;
18162;SDS011;9206;50.994;4.538;2023-03-01T00:04:46;12.57;;;7.70;;
18162;SDS011;9206;50.994;4.538;2023-03-01T00:07:41;9.20;;;6.70;;
18162;SDS011;9206;50.994;4.538;2023-03-01T00:10:31;8.50;;;6.83;;
18162;SDS011;9206;50.994;4.538;2023-03-01T00:13:24;7.53;;;6.83;;
18162;SDS011;9206;50.994;4.538;2023-03-01T00:16:13;7.93;;;7.23;;
18162;SDS011;9206;50.994;4.538;2023-03-01T00:19:02;7.97;;;7.37;;
18162;SDS011;9206;50.994;4.538;2023-03-01T00:21:52;7.37;;;6.73;;
18162;SDS011;9206;50.994;4.538;2023-03-01T00:24:41;8.60;;;7.50;;
18162;SDS011;9206;50.994;4.538;2023-03-01T00:27:28;8.03;;;7.13;;
18162;SDS011;9206;50.994;4.538;2023-03-01T00:30:17;8.07;;;7.27;;
18162;SDS011;9206;50.994;4.538;2023-03-01T00:33:08;8.30;;;7.10;;
18162;SDS011;9206;50.994;4.538;2023-03-01T00:35:57;8.47;;;7.67;;
18162;SDS011;9206;50.994;4.538;2023-03-01T00:38:45;7.83;;;7.10;;
18162;SDS011;9206;50.994;4.538;2023-03-01T00:41:45;8.00;;;7.40;;
18162;SDS011;9206;50.994;4.538;2023-03-01T00:44:33;8.57;;;7.77;;
18162;SDS011;9206;50.994;4.538;2023-03-01T00:47:22;9.33;;;6.67;;
18162;SDS011;9206;50.994;4.538;2023-03-01T00:50:16;7.53;;;6.93;;
18162;SDS011;9206;50.994;4.538;2023-03-01T00:53:05;8.03;;;7.27;;
18162;SDS011;9206;50.994;4.538;2023-03-01T00:55:52;7.83;;;7.20;;
18162;SDS011;9206;50.994;4.538;2023-03-01T00:58:46;7.93;;;7.30;;
18162;SDS011;9206;50.994;4.538;2023-03-01T01:01:37;8.00;;;7.30;;
18162;SDS011;9206;50.994;4.538;2023-03-01T01:04:24;8.80;;;7.90;;
18162;SDS011;9206;50.994;4.538;2023-03-01T01:07:13;7.97;;;7.37;;
18162;SDS011;9206;50.994;4.538;2023-03-01T01:10:02;8.03;;;7.23;;
18162;SDS011;9206;50.994;4.538;2023-03-01T01:12:50;7.60;;;6.87;;
18162;SDS011;9206;50.994;4.538;2023-03-01T01:15:39;8.07;;;7.37;;
18162;SDS011;9206;50.994;4.538;2023-03-01T01:18:31;8.90;;;8.10;;
18162;SDS011;9206;50.994;4.538;2023-03-01T01:21:20;8.30;;;7.27;;
18162;SDS011;9206;50.994;4.538;2023-03-01T01:24:09;7.43;;;6.70;;
18162;SDS011;9206;50.994;4.538;2023-03-01T01:26:57;7.57;;;6.97;;
18162;SDS011;9206;50.994;4.538;2023-03-01T01:29:46;7.67;;;7.07;;
18162;SDS011;9206;50.994;4.538;2023-03-01T01:32:40;8.17;;;7.43;;
18162;SDS011;9206;50.994;4.538;2023-03-01T01:35:27;7.97;;;7.17;;
18162;SDS011;9206;50.994;4.538;2023-03-01T01:38:18;8.93;;;7.73;;
18162;SDS011;9206;50.994;4.538;2023-03-01T01:41:06;7.40;;;6.67;;
18162;SDS011;9206;50.994;4.538;2023-03-01T01:44:13;8.00;;;7.20;;
18162;SDS011;9206;50.994;4.538;2023-03-01T01:47:12;7.70;;;6.97;;
18162;SDS011;9206;50.994;4.538;2023-03-01T01:50:08;7.97;;;7.37;;
18162;SDS011;9206;50.994;4.538;2023-03-01T01:53:09;7.67;;;6.97;;
18162;SDS011;9206;50.994;4.538;2023-03-01T01:55:59;8.17;;;7.33;;
18162;SDS011;9206;50.994;4.538;2023-03-01T01:58:48;9.57;;;8.43;;
18162;SDS011;9206;50.994;4.538;2023-03-01T02:01:37;7.40;;;6.80;;
18162;SDS011;9206;50.994;4.538;2023-03-01T02:04:30;9.00;;;7.83;;
18162;SDS011;9206;50.994;4.538;2023-03-01T02:07:21;8.20;;;7.50;;
18162;SDS011;9206;50.994;4.538;2023-03-01T02:10:10;8.27;;;7.47;;
18162;SDS011;9206;50.994;4.538;2023-03-01T02:12:59;8.10;;;7.50;;
18162;SDS011;9206;50.994;4.538;2023-03-01T02:15:51;7.70;;;7.00;;
18162;SDS011;9206;50.994;4.538;2023-03-01T02:18:38;8.00;;;7.40;;
18162;SDS011;9206;50.994;4.538;2023-03-01T02:21:36;8.23;;;7.50;;
18162;SDS011;9206;50.994;4.538;2023-03-01T02:24:40;7.33;;;6.77;;
18162;SDS011;9206;50.994;4.538;2023-03-01T02:30:40;9.23;;;8.33;;
18162;SDS011;9206;50.994;4.538;2023-03-01T02:33:51;8.80;;;8.10;;
18162;SDS011;9206;50.994;4.538;2023-03-01T02:39:34;8.20;;;7.33;;
18162;SDS011;9206;50.994;4.538;2023-03-01T02:42:36;10.30;;;7.67;;
18162;SDS011;9206;50.994;4.538;2023-03-01T02:48:22;8.77;;;7.97;;
18162;SDS011;9206;50.994;4.538;2023-03-01T02:51:13;7.90;;;7.20;;
18162;SDS011;9206;50.994;4.538;2023-03-01T02:54:15;8.63;;;7.77;;
18162;SDS011;9206;50.994;4.538;2023-03-01T02:57:09;9.60;;;8.63;;
18162;SDS011;9206;50.994;4.538;2023-03-01T03:00:03;9.10;;;8.23;;
18162;SDS011;9206;50.994;4.538;2023-03-01T03:02:59;8.73;;;7.67;;
18162;SDS011;9206;50.994;4.538;2023-03-01T03:05:49;7.93;;;7.17;;
18162;SDS011;9206;50.994;4.538;2023-03-01T03:08:37;9.00;;;8.20;;
18162;SDS011;9206;50.994;4.538;2023-03-01T03:11:26;8.70;;;7.97;;
18162;SDS011;9206;50.994;4.538;2023-03-01T03:14:14;9.23;;;8.33;;
18162;SDS011;9206;50.994;4.538;2023-03-01T03:17:02;8.67;;;7.87;;
18162;SDS011;9206;50.994;4.538;2023-03-01T03:19:52;8.70;;;7.87;;
18162;SDS011;9206;50.994;4.538;2023-03-01T03:22:40;8.93;;;8.13;;
18162;SDS011;9206;50.994;4.538;2023-03-01T03:25:31;9.23;;;8.43;;
18162;SDS011;9206;50.994;4.538;2023-03-01T03:28:24;9.67;;;8.70;;
18162;SDS011;9206;50.994;4.538;2023-03-01T03:31:14;8.00;;;7.20;;
18162;SDS011;9206;50.994;4.538;2023-03-01T03:34:04;8.77;;;7.83;;
18162;SDS011;9206;50.994;4.538;2023-03-01T03:36:57;9.20;;;8.30;;
18162;SDS011;9206;50.994;4.538;2023-03-01T03:39:46;10.53;;;9.03;;
18162;SDS011;9206;50.994;4.538;2023-03-01T03:42:39;8.37;;;7.57;;
18162;SDS011;9206;50.994;4.538;2023-03-01T03:45:26;9.50;;;8.50;;
18162;SDS011;9206;50.994;4.538;2023-03-01T03:48:15;9.10;;;8.17;;
18162;SDS011;9206;50.994;4.538;2023-03-01T03:51:06;9.63;;;7.77;;
18162;SDS011;9206;50.994;4.538;2023-03-01T03:54:02;8.77;;;7.97;;
18162;SDS011;9206;50.994;4.538;2023-03-01T03:56:51;9.10;;;8.30;;
18162;SDS011;9206;50.994;4.538;2023-03-01T03:59:44;9.17;;;8.27;;
18162;SDS011;9206;50.994;4.538;2023-03-01T04:02:32;9.80;;;8.93;;
18162;SDS011;9206;50.994;4.538;2023-03-01T04:05:25;9.50;;;8.53;;
18162;SDS011;9206;50.994;4.538;2023-03-01T04:08:14;8.43;;;7.77;;
18162;SDS011;9206;50.994;4.538;2023-03-01T04:14:15;8.63;;;7.60;;
18162;SDS011;9206;50.994;4.538;2023-03-01T04:17:02;8.73;;;7.83;;
18162;SDS011;9206;50.994;4.538;2023-03-01T04:19:50;8.60;;;7.80;;
18162;SDS011;9206;50.994;4.538;2023-03-01T04:22:40;8.80;;;7.93;;
18162;SDS011;9206;50.994;4.538;2023-03-01T04:25:33;8.90;;;8.00;;
18162;SDS011;9206;50.994;4.538;2023-03-01T04:28:24;8.47;;;7.60;;
18162;SDS011;9206;50.994;4.538;2023-03-01T04:31:15;9.67;;;8.50;;
18162;SDS011;9206;50.994;4.538;2023-03-01T04:34:12;9.37;;;8.03;;
18162;SDS011;9206;50.994;4.538;2023-03-01T04:37:05;10.87;;;8.37;;
18162;SDS011;9206;50.994;4.538;2023-03-01T04:39:58;10.77;;;7.90;;
18162;SDS011;9206;50.994;4.538;2023-03-01T04:42:45;10.07;;;8.77;;
18162;SDS011;9206;50.994;4.538;2023-03-01T04:48:24;8.97;;;8.07;;
18162;SDS011;9206;50.994;4.538;2023-03-01T04:51:13;13.63;;;8.00;;
18162;SDS011;9206;50.994;4.538;2023-03-01T04:54:03;9.50;;;8.50;;
18162;SDS011;9206;50.994;4.538;2023-03-01T04:57:00;12.23;;;8.97;;
18162;SDS011;9206;50.994;4.538;2023-03-01T04:59:51;9.53;;;8.67;;
18162;SDS011;9206;50.994;4.538;2023-03-01T05:02:38;10.00;;;8.97;;
18162;SDS011;9206;50.994;4.538;2023-03-01T05:05:31;8.43;;;7.63;;
18162;SDS011;9206;50.994;4.538;2023-03-01T05:08:22;9.13;;;8.23;;
18162;SDS011;9206;50.994;4.538;2023-03-01T05:11:15;9.30;;;8.40;;
18162;SDS011;9206;50.994;4.538;2023-03-01T05:14:03;9.70;;;8.50;;
18162;SDS011;9206;50.994;4.538;2023-03-01T05:16:53;10.37;;;8.50;;
18162;SDS011;9206;50.994;4.538;2023-03-01T05:22:38;8.57;;;7.77;;
18162;SDS011;9206;50.994;4.538;2023-03-01T05:25:27;8.57;;;7.87;;
18162;SDS011;9206;50.994;4.538;2023-03-01T05:28:19;8.43;;;7.63;;
18162;SDS011;9206;50.994;4.538;2023-03-01T05:31:13;8.83;;;8.03;;
18162;SDS011;9206;50.994;4.538;2023-03-01T05:34:07;10.20;;;8.50;;
18162;SDS011;9206;50.994;4.538;2023-03-01T05:36:56;8.77;;;7.83;;
18162;SDS011;9206;50.994;4.538;2023-03-01T05:42:36;9.30;;;8.50;;
18162;SDS011;9206;50.994;4.538;2023-03-01T05:45:26;9.63;;;7.90;;
18162;SDS011;9206;50.994;4.538;2023-03-01T05:48:16;9.03;;;8.33;;
18162;SDS011;9206;50.994;4.538;2023-03-01T05:51:06;8.60;;;7.77;;
18162;SDS011;9206;50.994;4.538;2023-03-01T05:53:57;9.27;;;8.40;;
18162;SDS011;9206;50.994;4.538;2023-03-01T05:56:57;11.07;;;8.13;;
18162;SDS011;9206;50.994;4.538;2023-03-01T05:59:50;9.07;;;8.17;;
18162;SDS011;9206;50.994;4.538;2023-03-01T06:02:40;8.80;;;8.00;;
18162;SDS011;9206;50.994;4.538;2023-03-01T06:05:29;9.50;;;8.07;;
18162;SDS011;9206;50.994;4.538;2023-03-01T06:08:17;9.53;;;8.60;;
18162;SDS011;9206;50.994;4.538;2023-03-01T06:11:07;8.13;;;7.50;;
18162;SDS011;9206;50.994;4.538;2023-03-01T06:14:07;9.47;;;8.60;;
18162;SDS011;9206;50.994;4.538;2023-03-01T06:17:01;8.30;;;7.60;;
18162;SDS011;9206;50.994;4.538;2023-03-01T06:19:59;8.87;;;8.00;;
18162;SDS011;9206;50.994;4.538;2023-03-01T06:22:49;9.00;;;8.20;;
18162;SDS011;9206;50.994;4.538;2023-03-01T06:25:37;10.33;;;8.13;;
18162;SDS011;9206;50.994;4.538;2023-03-01T06:28:26;9.10;;;8.20;;
18162;SDS011;9206;50.994;4.538;2023-03-01T06:31:16;10.27;;;8.60;;
18162;SDS011;9206;50.994;4.538;2023-03-01T06:34:04;8.50;;;7.63;;
18162;SDS011;9206;50.994;4.538;2023-03-01T06:36:53;9.97;;;8.33;;
18162;SDS011;9206;50.994;4.538;2023-03-01T06:39:42;8.97;;;7.83;;
18162;SDS011;9206;50.994;4.538;2023-03-01T06:45:21;11.67;;;8.57;;
18162;SDS011;9206;50.994;4.538;2023-03-01T06:48:13;12.87;;;8.70;;
18162;SDS011;9206;50.994;4.538;2023-03-01T06:53:57;8.47;;;7.67;;
18162;SDS011;9206;50.994;4.538;2023-03-01T06:56:46;9.97;;;8.10;;
18162;SDS011;9206;50.994;4.538;2023-03-01T06:59:35;9.10;;;8.20;;
18162;SDS011;9206;50.994;4.538;2023-03-01T07:02:31;11.27;;;8.53;;
18162;SDS011;9206;50.994;4.538;2023-03-01T07:05:22;9.80;;;9.00;;
18162;SDS011;9206;50.994;4.538;2023-03-01T07:08:09;8.77;;;7.87;;
18162;SDS011;9206;50.994;4.538;2023-03-01T07:11:00;9.60;;;8.53;;
18162;SDS011;9206;50.994;4.538;2023-03-01T07:13:55;9.90;;;8.53;;
18162;SDS011;9206;50.994;4.538;2023-03-01T07:19:35;9.53;;;8.57;;
18162;SDS011;9206;50.994;4.538;2023-03-01T07:22:30;10.80;;;9.17;;
18162;SDS011;9206;50.994;4.538;2023-03-01T07:25:21;10.87;;;8.73;;
18162;SDS011;9206;50.994;4.538;2023-03-01T07:28:09;15.10;;;8.90;;
18162;SDS011;9206;50.994;4.538;2023-03-01T07:31:00;9.83;;;8.83;;
18162;SDS011;9206;50.994;4.538;2023-03-01T07:33:49;9.20;;;8.30;;
18162;SDS011;9206;50.994;4.538;2023-03-01T07:36:42;8.67;;;7.80;;
18162;SDS011;9206;50.994;4.538;2023-03-01T07:39:33;9.73;;;8.83;;
18162;SDS011;9206;50.994;4.538;2023-03-01T07:42:28;9.50;;;8.60;;
18162;SDS011;9206;50.994;4.538;2023-03-01T07:45:16;11.80;;;8.97;;
18162;SDS011;9206;50.994;4.538;2023-03-01T07:48:04;17.70;;;9.67;;
18162;SDS011;9206;50.994;4.538;2023-03-01T07:50:52;12.03;;;8.57;;
18162;SDS011;9206;50.994;4.538;2023-03-01T07:53:40;9.30;;;8.37;;
18162;SDS011;9206;50.994;4.538;2023-03-01T07:56:30;10.13;;;8.53;;
18162;SDS011;9206;50.994;4.538;2023-03-01T07:59:17;9.73;;;8.37;;
18162;SDS011;9206;50.994;4.538;2023-03-01T08:02:11;13.63;;;9.97;;
18162;SDS011;9206;50.994;4.538;2023-03-01T08:10:41;9.67;;;8.73;;
18162;SDS011;9206;50.994;4.538;2023-03-01T08:13:33;9.23;;;8.43;;
18162;SDS011;9206;50.994;4.538;2023-03-01T08:16:26;9.43;;;8.63;;
18162;SDS011;9206;50.994;4.538;2023-03-01T08:19:20;9.73;;;8.60;;
18162;SDS011;9206;50.994;4.538;2023-03-01T08:22:08;11.33;;;8.33;;
18162;SDS011;9206;50.994;4.538;2023-03-01T08:25:01;11.27;;;8.77;;
18162;SDS011;9206;50.994;4.538;2023-03-01T08:27:51;9.30;;;8.20;;
18162;SDS011;9206;50.994;4.538;2023-03-01T08:30:45;8.70;;;7.90;;
18162;SDS011;9206;50.994;4.538;2023-03-01T08:33:34;9.20;;;8.30;;
18162;SDS011;9206;50.994;4.538;2023-03-01T08:36:25;8.87;;;8.07;;
18162;SDS011;9206;50.994;4.538;2023-03-01T08:39:20;9.03;;;8.23;;
18162;SDS011;9206;50.994;4.538;2023-03-01T08:42:08;8.90;;;8.07;;
18162;SDS011;9206;50.994;4.538;2023-03-01T08:44:55;9.37;;;8.40;;
18162;SDS011;9206;50.994;4.538;2023-03-01T08:47:45;8.17;;;7.40;;
18162;SDS011;9206;50.994;4.538;2023-03-01T08:53:24;7.60;;;7.00;;
18162;SDS011;9206;50.994;4.538;2023-03-01T08:56:12;7.87;;;7.33;;
18162;SDS011;9206;50.994;4.538;2023-03-01T08:59:01;9.13;;;7.40;;
18162;SDS011;9206;50.994;4.538;2023-03-01T09:01:52;7.43;;;6.83;;
18162;SDS011;9206;50.994;4.538;2023-03-01T09:04:42;7.83;;;7.13;;
18162;SDS011;9206;50.994;4.538;2023-03-01T09:10:23;7.63;;;7.10;;
18162;SDS011;9206;50.994;4.538;2023-03-01T09:13:10;8.27;;;7.40;;
18162;SDS011;9206;50.994;4.538;2023-03-01T09:16:03;7.23;;;6.83;;
18162;SDS011;9206;50.994;4.538;2023-03-01T09:18:54;7.80;;;7.03;;
18162;SDS011;9206;50.994;4.538;2023-03-01T09:21:43;8.00;;;7.30;;
18162;SDS011;9206;50.994;4.538;2023-03-01T09:24:39;7.60;;;7.03;;
18162;SDS011;9206;50.994;4.538;2023-03-01T09:27:29;8.13;;;7.53;;
18162;SDS011;9206;50.994;4.538;2023-03-01T09:30:16;7.40;;;6.80;;
18162;SDS011;9206;50.994;4.538;2023-03-01T09:33:06;7.97;;;7.20;;
18162;SDS011;9206;50.994;4.538;2023-03-01T09:36:02;7.83;;;7.23;;
18162;SDS011;9206;50.994;4.538;2023-03-01T09:38:52;7.60;;;7.00;;
18162;SDS011;9206;50.994;4.538;2023-03-01T09:41:44;7.80;;;7.10;;
18162;SDS011;9206;50.994;4.538;2023-03-01T09:44:36;7.87;;;7.27;;
18162;SDS011;9206;50.994;4.538;2023-03-01T09:47:27;8.47;;;7.27;;
18162;SDS011;9206;50.994;4.538;2023-03-01T09:50:39;7.77;;;7.27;;
18162;SDS011;9206;50.994;4.538;2023-03-01T09:53:37;7.83;;;7.20;;
18162;SDS011;9206;50.994;4.538;2023-03-01T09:56:27;7.37;;;6.87;;
18162;SDS011;9206;50.994;4.538;2023-03-01T09:59:25;6.87;;;6.37;;
18162;SDS011;9206;50.994;4.538;2023-03-01T10:02:24;7.10;;;6.50;;
18162;SDS011;9206;50.994;4.538;2023-03-01T10:05:31;9.33;;;7.00;;
18162;SDS011;9206;50.994;4.538;2023-03-01T10:08:33;7.13;;;6.63;;
18162;SDS011;9206;50.994;4.538;2023-03-01T10:11:32;8.13;;;7.40;;
18162;SDS011;9206;50.994;4.538;2023-03-01T10:14:27;6.97;;;6.47;;
18162;SDS011;9206;50.994;4.538;2023-03-01T10:17:26;8.03;;;7.43;;
18162;SDS011;9206;50.994;4.538;2023-03-01T10:20:20;8.10;;;7.50;;
18162;SDS011;9206;50.994;4.538;2023-03-01T10:23:12;9.27;;;7.33;;
18162;SDS011;9206;50.994;4.538;2023-03-01T10:29:21;7.90;;;6.93;;
18162;SDS011;9206;50.994;4.538;2023-03-01T10:32:13;11.07;;;7.50;;
18162;SDS011;9206;50.994;4.538;2023-03-01T10:35:01;7.93;;;7.30;;
18162;SDS011;9206;50.994;4.538;2023-03-01T10:38:08;8.30;;;7.60;;
18162;SDS011;9206;50.994;4.538;2023-03-01T10:41:04;8.60;;;7.30;;
18162;SDS011;9206;50.994;4.538;2023-03-01T10:43:55;7.43;;;6.77;;
18162;SDS011;9206;50.994;4.538;2023-03-01T10:46:46;7.73;;;7.13;;
18162;SDS011;9206;50.994;4.538;2023-03-01T10:49:58;8.23;;;7.47;;
18162;SDS011;9206;50.994;4.538;2023-03-01T10:52:57;8.43;;;7.57;;
18162;SDS011;9206;50.994;4.538;2023-03-01T10:55:56;7.73;;;7.13;;
18162;SDS011;9206;50.994;4.538;2023-03-01T10:58:56;7.23;;;6.50;;
18162;SDS011;9206;50.994;4.538;2023-03-01T11:01:49;7.50;;;6.90;;
18162;SDS011;9206;50.994;4.538;2023-03-01T11:04:57;7.37;;;6.87;;
18162;SDS011;9206;50.994;4.538;2023-03-01T11:10:45;7.27;;;6.73;;
18162;SDS011;9206;50.994;4.538;2023-03-01T11:13:40;8.83;;;6.83;;
18162;SDS011;9206;50.994;4.538;2023-03-01T11:16:43;7.00;;;6.60;;
18162;SDS011;9206;50.994;4.538;2023-03-01T11:19:34;7.60;;;6.60;;
18162;SDS011;9206;50.994;4.538;2023-03-01T11:22:27;7.27;;;6.77;;
18162;SDS011;9206;50.994;4.538;2023-03-01T11:25:23;7.43;;;6.83;;
18162;SDS011;9206;50.994;4.538;2023-03-01T11:28:14;7.67;;;7.07;;
18162;SDS011;9206;50.994;4.538;2023-03-01T11:34:11;7.37;;;6.77;;
18162;SDS011;9206;50.994;4.538;2023-03-01T11:37:02;7.10;;;6.60;;
18162;SDS011;9206;50.994;4.538;2023-03-01T11:39:59;6.87;;;6.40;;
18162;SDS011;9206;50.994;4.538;2023-03-01T11:43:03;8.03;;;6.67;;
18162;SDS011;9206;50.994;4.538;2023-03-01T11:46:02;8.63;;;7.70;;
18162;SDS011;9206;50.994;4.538;2023-03-01T11:55:45;7.50;;;6.90;;
18162;SDS011;9206;50.994;4.538;2023-03-01T12:05:33;7.47;;;6.77;;
18162;SDS011;9206;50.994;4.538;2023-03-01T12:08:41;6.97;;;6.37;;
18162;SDS011;9206;50.994;4.538;2023-03-01T12:11:38;7.97;;;7.00;;
18162;SDS011;9206;50.994;4.538;2023-03-01T12:17:54;7.80;;;6.87;;
18162;SDS011;9206;50.994;4.538;2023-03-01T12:20:54;7.27;;;6.77;;
18162;SDS011;9206;50.994;4.538;2023-03-01T12:24:02;7.20;;;6.70;;
18162;SDS011;9206;50.994;4.538;2023-03-01T12:27:21;8.67;;;7.17;;
18162;SDS011;9206;50.994;4.538;2023-03-01T12:30:35;7.10;;;6.60;;
18162;SDS011;9206;50.994;4.538;2023-03-01T12:33:35;8.03;;;7.23;;
18162;SDS011;9206;50.994;4.538;2023-03-01T12:36:46;7.70;;;6.90;;
18162;SDS011;9206;50.994;4.538;2023-03-01T12:40:03;7.67;;;7.17;;
18162;SDS011;9206;50.994;4.538;2023-03-01T12:43:08;8.70;;;7.90;;
18162;SDS011;9206;50.994;4.538;2023-03-01T12:46:09;7.97;;;7.37;;
18162;SDS011;9206;50.994;4.538;2023-03-01T12:49:07;9.00;;;7.10;;
18162;SDS011;9206;50.994;4.538;2023-03-01T12:52:11;7.90;;;7.23;;
18162;SDS011;9206;50.994;4.538;2023-03-01T12:55:08;7.90;;;7.10;;
18162;SDS011;9206;50.994;4.538;2023-03-01T12:58:13;10.07;;;7.27;;
18162;SDS011;9206;50.994;4.538;2023-03-01T13:01:14;7.17;;;6.67;;
18162;SDS011;9206;50.994;4.538;2023-03-01T13:04:20;7.33;;;6.73;;
18162;SDS011;9206;50.994;4.538;2023-03-01T13:07:24;7.20;;;6.60;;
18162;SDS011;9206;50.994;4.538;2023-03-01T13:10:19;7.33;;;6.83;;
18162;SDS011;9206;50.994;4.538;2023-03-01T13:13:18;7.50;;;6.90;;
18162;SDS011;9206;50.994;4.538;2023-03-01T13:19:35;7.47;;;6.90;;
18162;SDS011;9206;50.994;4.538;2023-03-01T13:22:32;7.63;;;7.03;;
18162;SDS011;9206;50.994;4.538;2023-03-01T13:34:59;7.90;;;7.20;;
18162;SDS011;9206;50.994;4.538;2023-03-01T13:37:50;9.17;;;7.97;;
18162;SDS011;9206;50.994;4.538;2023-03-01T13:40:58;7.60;;;7.03;;
18162;SDS011;9206;50.994;4.538;2023-03-01T13:43:49;8.30;;;7.23;;
18162;SDS011;9206;50.994;4.538;2023-03-01T13:46:43;7.63;;;7.13;;
18162;SDS011;9206;50.994;4.538;2023-03-01T13:52:38;7.77;;;7.10;;
18162;SDS011;9206;50.994;4.538;2023-03-01T13:55:30;7.57;;;6.93;;
18162;SDS011;9206;50.994;4.538;2023-03-01T13:58:25;8.33;;;7.70;;
18162;SDS011;9206;50.994;4.538;2023-03-01T14:01:20;8.73;;;7.70;;
18162;SDS011;9206;50.994;4.538;2023-03-01T14:04:20;8.27;;;7.50;;
18162;SDS011;9206;50.994;4.538;2023-03-01T14:07:11;7.97;;;7.23;;
18162;SDS011;9206;50.994;4.538;2023-03-01T14:10:05;8.40;;;7.80;;
18162;SDS011;9206;50.994;4.538;2023-03-01T14:12:55;8.13;;;7.53;;
18162;SDS011;9206;50.994;4.538;2023-03-01T14:16:05;8.33;;;7.63;;
18162;SDS011;9206;50.994;4.538;2023-03-01T14:19:02;8.43;;;7.50;;
18162;SDS011;9206;50.994;4.538;2023-03-01T14:25:00;8.00;;;7.40;;
18162;SDS011;9206;50.994;4.538;2023-03-01T14:28:03;8.47;;;7.63;;
18162;SDS011;9206;50.994;4.538;2023-03-01T14:30:59;7.97;;;7.33;;
18162;SDS011;9206;50.994;4.538;2023-03-01T14:33:55;9.60;;;7.23;;
18162;SDS011;9206;50.994;4.538;2023-03-01T14:36:43;8.60;;;7.93;;
18162;SDS011;9206;50.994;4.538;2023-03-01T14:39:33;8.73;;;8.00;;
18162;SDS011;9206;50.994;4.538;2023-03-01T14:42:24;10.13;;;7.63;;
18162;SDS011;9206;50.994;4.538;2023-03-01T14:45:15;8.53;;;7.67;;
18162;SDS011;9206;50.994;4.538;2023-03-01T14:48:06;8.73;;;7.60;;
18162;SDS011;9206;50.994;4.538;2023-03-01T14:51:01;8.57;;;7.77;;
18162;SDS011;9206;50.994;4.538;2023-03-01T14:53:52;10.13;;;7.87;;
18162;SDS011;9206;50.994;4.538;2023-03-01T14:56:50;7.57;;;6.97;;
18162;SDS011;9206;50.994;4.538;2023-03-01T14:59:45;8.00;;;7.20;;
18162;SDS011;9206;50.994;4.538;2023-03-01T15:02:36;8.00;;;7.37;;
18162;SDS011;9206;50.994;4.538;2023-03-01T15:05:26;8.30;;;7.57;;
18162;SDS011;9206;50.994;4.538;2023-03-01T15:08:20;8.60;;;7.77;;
18162;SDS011;9206;50.994;4.538;2023-03-01T15:11:17;8.30;;;7.60;;
18162;SDS011;9206;50.994;4.538;2023-03-01T15:17:28;8.93;;;7.53;;
18162;SDS011;9206;50.994;4.538;2023-03-01T15:20:18;8.10;;;7.33;;
18162;SDS011;9206;50.994;4.538;2023-03-01T15:23:12;8.23;;;7.47;;
18162;SDS011;9206;50.994;4.538;2023-03-01T15:26:18;9.97;;;8.80;;
18162;SDS011;9206;50.994;4.538;2023-03-01T15:29:21;8.57;;;7.77;;
18162;SDS011;9206;50.994;4.538;2023-03-01T15:35:39;8.30;;;7.60;;
18162;SDS011;9206;50.994;4.538;2023-03-01T15:38:36;7.60;;;6.90;;
18162;SDS011;9206;50.994;4.538;2023-03-01T15:41:46;8.17;;;6.83;;
18162;SDS011;9206;50.994;4.538;2023-03-01T15:44:35;8.33;;;7.63;;
18162;SDS011;9206;50.994;4.538;2023-03-01T15:47:28;10.30;;;8.00;;
18162;SDS011;9206;50.994;4.538;2023-03-01T15:50:24;7.57;;;6.77;;
18162;SDS011;9206;50.994;4.538;2023-03-01T15:53:19;6.63;;;6.13;;
18162;SDS011;9206;50.994;4.538;2023-03-01T15:56:08;8.33;;;7.63;;
18162;SDS011;9206;50.994;4.538;2023-03-01T16:04:40;7.47;;;6.77;;
18162;SDS011;9206;50.994;4.538;2023-03-01T16:07:28;7.53;;;6.80;;
18162;SDS011;9206;50.994;4.538;2023-03-01T16:10:17;7.17;;;6.53;;
18162;SDS011;9206;50.994;4.538;2023-03-01T16:13:08;8.80;;;5.93;;
18162;SDS011;9206;50.994;4.538;2023-03-01T16:15:57;8.73;;;7.90;;
18162;SDS011;9206;50.994;4.538;2023-03-01T16:18:54;7.00;;;6.40;;
18162;SDS011;9206;50.994;4.538;2023-03-01T16:21:42;9.43;;;6.20;;
18162;SDS011;9206;50.994;4.538;2023-03-01T16:24:33;7.43;;;6.80;;
18162;SDS011;9206;50.994;4.538;2023-03-01T16:27:28;7.80;;;7.20;;
18162;SDS011;9206;50.994;4.538;2023-03-01T16:30:18;7.53;;;6.83;;
18162;SDS011;9206;50.994;4.538;2023-03-01T16:33:08;7.10;;;6.40;;
18162;SDS011;9206;50.994;4.538;2023-03-01T16:36:01;7.17;;;6.50;;
18162;SDS011;9206;50.994;4.538;2023-03-01T16:38:53;6.77;;;6.17;;
18162;SDS011;9206;50.994;4.538;2023-03-01T16:41:43;7.20;;;6.63;;
18162;SDS011;9206;50.994;4.538;2023-03-01T16:44:30;7.77;;;6.90;;
18162;SDS011;9206;50.994;4.538;2023-03-01T16:47:21;8.93;;;8.13;;
18162;SDS011;9206;50.994;4.538;2023-03-01T16:50:09;8.03;;;7.33;;
18162;SDS011;9206;50.994;4.538;2023-03-01T16:52:57;6.87;;;6.23;;
18162;SDS011;9206;50.994;4.538;2023-03-01T16:55:54;9.90;;;8.90;;
18162;SDS011;9206;50.994;4.538;2023-03-01T16:58:45;8.83;;;8.03;;
18162;SDS011;9206;50.994;4.538;2023-03-01T17:01:33;7.93;;;7.27;;
18162;SDS011;9206;50.994;4.538;2023-03-01T17:04:24;7.83;;;7.00;;
18162;SDS011;9206;50.994;4.538;2023-03-01T17:07:25;8.23;;;6.00;;
18162;SDS011;9206;50.994;4.538;2023-03-01T17:10:14;7.37;;;6.57;;
18162;SDS011;9206;50.994;4.538;2023-03-01T17:13:08;9.80;;;7.37;;
18162;SDS011;9206;50.994;4.538;2023-03-01T17:16:00;7.07;;;6.37;;
18162;SDS011;9206;50.994;4.538;2023-03-01T17:18:55;7.17;;;6.53;;
18162;SDS011;9206;50.994;4.538;2023-03-01T17:21:52;7.57;;;6.87;;
18162;SDS011;9206;50.994;4.538;2023-03-01T17:24:46;15.20;;;10.40;;
18162;SDS011;9206;50.994;4.538;2023-03-01T17:27:59;11.03;;;8.97;;
18162;SDS011;9206;50.994;4.538;2023-03-01T17:31:04;11.23;;;8.83;;
18162;SDS011;9206;50.994;4.538;2023-03-01T17:33:56;11.77;;;9.63;;
18162;SDS011;9206;50.994;4.538;2023-03-01T17:36:45;14.47;;;9.13;;
18162;SDS011;9206;50.994;4.538;2023-03-01T17:39:36;11.43;;;8.43;;
18162;SDS011;9206;50.994;4.538;2023-03-01T17:42:24;9.07;;;8.17;;
18162;SDS011;9206;50.994;4.538;2023-03-01T17:45:12;11.20;;;10.03;;
18162;SDS011;9206;50.994;4.538;2023-03-01T17:48:06;10.73;;;9.23;;
18162;SDS011;9206;50.994;4.538;2023-03-01T17:50:59;12.60;;;10.27;;
18162;SDS011;9206;50.994;4.538;2023-03-01T17:53:51;10.77;;;9.67;;
18162;SDS011;9206;50.994;4.538;2023-03-01T17:56:40;11.70;;;9.00;;
18162;SDS011;9206;50.994;4.538;2023-03-01T17:59:35;9.00;;;8.13;;
18162;SDS011;9206;50.994;4.538;2023-03-01T18:02:36;12.27;;;9.73;;
18162;SDS011;9206;50.994;4.538;2023-03-01T18:05:26;11.37;;;8.83;;
18162;SDS011;9206;50.994;4.538;2023-03-01T18:08:20;9.93;;;8.97;;
18162;SDS011;9206;50.994;4.538;2023-03-01T18:11:07;10.83;;;9.73;;
18162;SDS011;9206;50.994;4.538;2023-03-01T18:16:52;10.00;;;9.13;;
18162;SDS011;9206;50.994;4.538;2023-03-01T18:19:42;10.77;;;8.87;;
18162;SDS011;9206;50.994;4.538;2023-03-01T18:22:29;14.17;;;9.10;;
18162;SDS011;9206;50.994;4.538;2023-03-01T18:25:23;9.50;;;8.50;;
18162;SDS011;9206;50.994;4.538;2023-03-01T18:28:16;9.60;;;8.63;;
18162;SDS011;9206;50.994;4.538;2023-03-01T18:31:06;10.03;;;8.63;;
18162;SDS011;9206;50.994;4.538;2023-03-01T18:33:58;9.33;;;8.53;;
18162;SDS011;9206;50.994;4.538;2023-03-01T18:39:44;10.83;;;8.43;;
18162;SDS011;9206;50.994;4.538;2023-03-01T18:42:31;13.40;;;9.13;;
18162;SDS011;9206;50.994;4.538;2023-03-01T18:45:19;9.83;;;8.80;;
18162;SDS011;9206;50.994;4.538;2023-03-01T18:48:07;10.60;;;8.63;;
18162;SDS011;9206;50.994;4.538;2023-03-01T18:54:06;10.63;;;9.63;;
18162;SDS011;9206;50.994;4.538;2023-03-01T18:57:01;10.43;;;9.40;;
18162;SDS011;9206;50.994;4.538;2023-03-01T18:59:48;13.20;;;10.90;;
18162;SDS011;9206;50.994;4.538;2023-03-01T19:02:41;15.00;;;12.10;;
18162;SDS011;9206;50.994;4.538;2023-03-01T19:05:30;16.97;;;12.47;;
18162;SDS011;9206;50.994;4.538;2023-03-01T19:08:18;23.50;;;12.53;;
18162;SDS011;9206;50.994;4.538;2023-03-01T19:11:05;18.07;;;12.87;;
18162;SDS011;9206;50.994;4.538;2023-03-01T19:14:01;16.47;;;12.30;;
18162;SDS011;9206;50.994;4.538;2023-03-01T19:16:54;20.27;;;12.80;;
18162;SDS011;9206;50.994;4.538;2023-03-01T19:19:43;18.10;;;13.70;;
18162;SDS011;9206;50.994;4.538;2023-03-01T19:22:32;15.10;;;11.43;;